Latest Weather Observations for Banana Bank

IDQ60801

Issued at 7:32 pm EST Saturday 1 August 2015 (issued every 30 minutes, with the page automatically refreshed every 10 minutes)

About weather observations | Map of weather stations | Latest weather observations for QLD | Other Formats
Station Details ID: 040925 Name: BANANA BANK NORTH BEACON Lat: -27.53 Lon: 153.33 Height: 7.0 m
Data from the previous 72 hours. | See also: Recent months for locations in Queensland
Date/Time
EST
Temp
°C
App
Temp
°C
Dew
Point
Rel
Hum
%
Delta-T
°C
Wind Press
QNH
hPa
Press
MSL
hPa
Rain
since 9 am
mm
Dir
 
Spd
km/h
Gust
km/h
Spd
kts
Gust
kts
01/07:30pm - - - - - N 13 17 7 9 - - -
01/07:00pm - - - - - N 15 17 8 9 - - -
01/06:30pm - - - - - NNE 13 17 7 9 - - -
01/06:00pm - - - - - NNE 11 13 6 7 - - -
01/05:30pm - - - - - N 7 9 4 5 - - -
01/05:00pm - - - - - N 11 13 6 7 - - -
01/04:30pm - - - - - N 15 19 8 10 - - -
01/04:00pm - - - - - N 13 17 7 9 - - -
01/03:30pm - - - - - N 13 17 7 9 - - -
01/03:00pm - - - - - N 7 11 4 6 - - -
01/02:30pm - - - - - NNW 6 7 3 4 - - -
01/02:00pm - - - - - NW 6 7 3 4 - - -
01/01:30pm - - - - - N 7 9 4 5 - - -
01/01:00pm - - - - - N 6 6 3 3 - - -
01/12:30pm - - - - - N 6 7 3 4 - - -
01/12:00pm - - - - - NNW 6 7 3 4 - - -
01/11:30am - - - - - CALM 0 4 0 2 - - -
01/11:00am - - - - - CALM 0 0 0 0 - - -
01/10:30am - - - - - CALM 0 0 0 0 - - -
01/10:00am - - - - - CALM 0 0 0 0 - - -
01/09:30am - - - - - CALM 0 0 0 0 - - -
01/09:00am - - - - - SW 6 7 3 4 - - -
01/08:30am - - - - - SSW 6 6 3 3 - - -
01/08:00am - - - - - SSW 4 6 2 3 - - -
01/07:30am - - - - - SW 4 6 2 3 - - -
01/07:00am - - - - - WSW 6 7 3 4 - - -
01/06:30am - - - - - WSW 4 7 2 4 - - -
01/06:00am - - - - - S 4 6 2 3 - - -
01/05:30am - - - - - SSE 4 6 2 3 - - -
01/05:00am - - - - - SSW 4 6 2 3 - - -
01/04:30am - - - - - SSW 4 6 2 3 - - -
01/04:00am - - - - - SSE 6 7 3 4 - - -
01/03:30am - - - - - SE 6 7 3 4 - - -
01/03:00am - - - - - SSE 6 9 3 5 - - -
01/02:30am - - - - - SSW 6 7 3 4 - - -
01/02:00am - - - - - S 9 11 5 6 - - -
01/01:30am - - - - - S 7 9 4 5 - - -
01/01:00am - - - - - SSW 9 9 5 5 - - -
01/12:30am - - - - - SSW 7 9 4 5 - - -
01/12:00am - - - - - SSW 6 7 3 4 - - -
 
Date/Time
EST
Temp
°C
App
Temp
°C
Dew
Point
Rel
Hum
%
Delta-T
°C
Wind Press
QNH
hPa
Press
MSL
hPa
Rain
since 9 am
mm
Dir
 
Spd
km/h
Gust
km/h
Spd
kts
Gust
kts
31/11:30pm - - - - - S 7 7 4 4 - - -
31/11:00pm - - - - - SSE 9 11 5 6 - - -
31/10:30pm - - - - - SSE 6 7 3 4 - - -
31/10:00pm - - - - - SSE 6 7 3 4 - - -
31/09:30pm - - - - - SSE 6 7 3 4 - - -
31/09:00pm - - - - - SSW 6 9 3 5 - - -
31/08:30pm - - - - - WNW 7 7 4 4 - - -
31/08:00pm - - - - - WNW 4 6 2 3 - - -
31/07:30pm - - - - - NE 7 9 4 5 - - -
31/07:00pm - - - - - N 9 11 5 6 - - -
31/06:30pm - - - - - N 11 13 6 7 - - -
31/06:00pm - - - - - N 9 11 5 6 - - -
31/05:30pm - - - - - N 11 13 6 7 - - -
31/05:00pm - - - - - N 11 13 6 7 - - -
31/04:30pm - - - - - NNE 11 13 6 7 - - -
31/04:00pm - - - - - NNE 4 7 2 4 - - -
31/03:30pm - - - - - NE 13 13 7 7 - - -
31/03:00pm - - - - - NE 9 11 5 6 - - -
31/02:30pm - - - - - N 7 9 4 5 - - -
31/02:00pm - - - - - N 9 13 5 7 - - -
31/01:30pm - - - - - N 9 11 5 6 - - -
31/01:00pm - - - - - N 6 9 3 5 - - -
31/12:30pm - - - - - N 7 9 4 5 - - -
31/12:00pm - - - - - NNE 9 11 5 6 - - -
31/11:30am - - - - - N 7 9 4 5 - - -
31/11:00am - - - - - N 9 13 5 7 - - -
31/10:30am - - - - - N 11 11 6 6 - - -
31/10:00am - - - - - N 6 7 3 4 - - -
31/09:30am - - - - - CALM 0 0 0 0 - - -
31/09:00am - - - - - CALM 0 0 0 0 - - -
31/08:30am - - - - - SSE 2 4 1 2 - - -
31/08:00am - - - - - SW 7 11 4 6 - - -
31/07:30am - - - - - WSW 7 11 4 6 - - -
31/07:00am - - - - - W 7 11 4 6 - - -
31/06:30am - - - - - W 7 13 4 7 - - -
31/06:00am - - - - - WNW 6 9 3 5 - - -
31/05:30am - - - - - CALM 0 4 0 2 - - -
31/05:00am - - - - - CALM 0 0 0 0 - - -
31/04:30am - - - - - SSW 4 7 2 4 - - -
31/04:00am - - - - - SW 7 9 4 5 - - -
31/03:30am - - - - - SW 6 7 3 4 - - -
31/03:00am - - - - - WSW 6 9 3 5 - - -
31/02:30am - - - - - WSW 6 7 3 4 - - -
31/02:00am - - - - - SW 4 6 2 3 - - -
31/01:30am - - - - - CALM 0 0 0 0 - - -
31/01:00am - - - - - CALM 0 2 0 1 - - -
31/12:30am - - - - - WSW 4 6 2 3 - - -
31/12:00am - - - - - WSW 4 6 2 3 - - -
 
Date/Time
EST
Temp
°C
App
Temp
°C
Dew
Point
Rel
Hum
%
Delta-T
°C
Wind Press
QNH
hPa
Press
MSL
hPa
Rain
since 9 am
mm
Dir
 
Spd
km/h
Gust
km/h
Spd
kts
Gust
kts
30/11:30pm - - - - - SW 4 6 2 3 - - -
30/11:00pm - - - - - SSW 4 6 2 3 - - -
30/10:30pm - - - - - CALM 0 0 0 0 - - -
30/10:00pm - - - - - NNW 4 4 2 2 - - -
30/09:30pm - - - - - CALM 0 0 0 0 - - -
30/09:00pm - - - - - CALM 0 0 0 0 - - -
30/08:30pm - - - - - CALM 0 0 0 0 - - -
30/08:00pm - - - - - CALM 0 0 0 0 - - -
30/07:30pm - - - - - NE 7 7 4 4 - - -
30/07:00pm - - - - - ENE 6 7 3 4 - - -
30/06:30pm - - - - - E 6 6 3 3 - - -
30/06:00pm - - - - - ENE 6 6 3 3 - - -
30/05:30pm - - - - - ENE 4 6 2 3 - - -
30/05:00pm - - - - - ENE 4 4 2 2 - - -
30/04:30pm - - - - - NE 9 9 5 5 - - -
30/04:00pm - - - - - NE 9 13 5 7 - - -
30/03:30pm - - - - - E 7 9 4 5 - - -
30/03:00pm - - - - - ESE 9 13 5 7 - - -
30/02:30pm - - - - - CALM 0 2 0 1 - - -
30/02:00pm - - - - - CALM 0 0 0 0 - - -
30/01:30pm - - - - - CALM 0 0 0 0 - - -
30/01:00pm - - - - - CALM 0 0 0 0 - - -
30/12:30pm - - - - - SW 6 6 3 3 - - -
30/12:00pm - - - - - SW 6 7 3 4 - - -
30/11:30am - - - - - SSW 7 9 4 5 - - -
30/11:00am - - - - - S 9 11 5 6 - - -
30/10:30am - - - - - SSW 11 15 6 8 - - -
30/10:00am - - - - - S 9 11 5 6 - - -
30/09:30am - - - - - SW 9 9 5 5 - - -
30/09:00am - - - - - SW 7 9 4 5 - - -
30/08:30am - - - - - SW 9 11 5 6 - - -
30/08:00am - - - - - SW 7 9 4 5 - - -
30/07:30am - - - - - WSW 6 9 3 5 - - -
30/07:00am - - - - - SSW 7 9 4 5 - - -
30/06:30am - - - - - S 7 9 4 5 - - -
30/06:00am - - - - - SSW 11 13 6 7 - - -
30/05:30am - - - - - SSW 13 15 7 8 - - -
30/05:00am - - - - - S 15 17 8 9 - - -
30/04:30am - - - - - SSW 15 17 8 9 - - -
30/04:00am - - - - - SSW 15 17 8 9 - - -
30/03:30am - - - - - SSW 20 24 11 13 - - -
30/03:00am - - - - - SSW 24 28 13 15 - - -
30/02:30am - - - - - SSW 9 11 5 6 - - -
30/02:00am - - - - - SW 6 6 3 3 - - -
30/01:30am - - - - - SSW 4 6 2 3 - - -
30/01:00am - - - - - S 6 7 3 4 - - -
30/12:30am - - - - - SW 6 7 3 4 - - -
30/12:00am - - - - - WSW 4 6 2 3 - - -
 
Date/Time
EST
Temp
°C
App
Temp
°C
Dew
Point
Rel
Hum
%
Delta-T
°C
Wind Press
QNH
hPa
Press
MSL
hPa
Rain
since 9 am
mm
Dir
 
Spd
km/h
Gust
km/h
Spd
kts
Gust
kts
29/11:30pm - - - - - WSW 6 9 3 5 - - -
29/11:00pm - - - - - SSW 7 9 4 5 - - -
29/10:30pm - - - - - SSW 7 9 4 5 - - -
29/10:00pm - - - - - SW 7 11 4 6 - - -
29/09:30pm - - - - - S 9 11 5 6 - - -
29/09:00pm - - - - - S 6 7 3 4 - - -
29/08:30pm - - - - - SSE 9 11 5 6 - - -
29/08:00pm - - - - - S 7 9 4 5 - - -

Other Formats:

Comma delimited format used in spreadsheet applications
http://www.bom.gov.au/fwo/IDQ60801/IDQ60801.94591.axf

JavaScript Object Notation format (JSON) in row-major order
http://www.bom.gov.au/fwo/IDQ60801/IDQ60801.94591.json